sensor_id;sensor_type;location;lat;lon;timestamp;P1;durP1;ratioP1;P2;durP2;ratioP2
8423;SDS011;4249;49.072;9.770;2022-08-20T00:01:26;19.42;;;17.33;;
8423;SDS011;4249;49.072;9.770;2022-08-20T00:04:13;20.70;;;18.45;;
8423;SDS011;4249;49.072;9.770;2022-08-20T00:07:01;19.10;;;17.10;;
8423;SDS011;4249;49.072;9.770;2022-08-20T00:09:48;23.13;;;19.00;;
8423;SDS011;4249;49.072;9.770;2022-08-20T00:12:36;19.25;;;17.13;;
8423;SDS011;4249;49.072;9.770;2022-08-20T00:15:30;19.08;;;16.13;;
8423;SDS011;4249;49.072;9.770;2022-08-20T00:18:20;19.20;;;17.10;;
8423;SDS011;4249;49.072;9.770;2022-08-20T00:21:09;25.63;;;18.33;;
8423;SDS011;4249;49.072;9.770;2022-08-20T00:23:57;18.77;;;16.88;;
8423;SDS011;4249;49.072;9.770;2022-08-20T00:26:45;20.00;;;17.90;;
8423;SDS011;4249;49.072;9.770;2022-08-20T00:29:32;20.00;;;17.47;;
8423;SDS011;4249;49.072;9.770;2022-08-20T00:32:19;18.98;;;16.65;;
8423;SDS011;4249;49.072;9.770;2022-08-20T00:35:08;19.05;;;16.50;;
8423;SDS011;4249;49.072;9.770;2022-08-20T00:37:55;20.10;;;17.07;;
8423;SDS011;4249;49.072;9.770;2022-08-20T00:40:44;18.13;;;16.27;;
8423;SDS011;4249;49.072;9.770;2022-08-20T00:43:34;21.33;;;19.03;;
8423;SDS011;4249;49.072;9.770;2022-08-20T00:46:24;21.45;;;19.13;;
8423;SDS011;4249;49.072;9.770;2022-08-20T00:49:14;21.60;;;17.90;;
8423;SDS011;4249;49.072;9.770;2022-08-20T00:52:06;22.67;;;19.50;;
8423;SDS011;4249;49.072;9.770;2022-08-20T00:54:57;21.43;;;19.13;;
8423;SDS011;4249;49.072;9.770;2022-08-20T00:57:46;22.97;;;20.30;;
8423;SDS011;4249;49.072;9.770;2022-08-20T01:00:39;19.67;;;17.63;;
8423;SDS011;4249;49.072;9.770;2022-08-20T01:03:29;20.50;;;18.37;;
8423;SDS011;4249;49.072;9.770;2022-08-20T01:06:17;21.05;;;18.42;;
8423;SDS011;4249;49.072;9.770;2022-08-20T01:09:06;26.47;;;19.70;;
8423;SDS011;4249;49.072;9.770;2022-08-20T01:11:53;21.52;;;18.55;;
8423;SDS011;4249;49.072;9.770;2022-08-20T01:14:41;22.80;;;19.43;;
8423;SDS011;4249;49.072;9.770;2022-08-20T01:17:31;21.85;;;17.92;;
8423;SDS011;4249;49.072;9.770;2022-08-20T01:20:22;19.90;;;17.80;;
8423;SDS011;4249;49.072;9.770;2022-08-20T01:23:13;20.15;;;18.08;;
8423;SDS011;4249;49.072;9.770;2022-08-20T01:26:18;21.30;;;18.13;;
8423;SDS011;4249;49.072;9.770;2022-08-20T01:29:09;22.90;;;18.17;;
8423;SDS011;4249;49.072;9.770;2022-08-20T01:31:59;19.53;;;17.23;;
8423;SDS011;4249;49.072;9.770;2022-08-20T01:34:47;20.00;;;17.63;;
8423;SDS011;4249;49.072;9.770;2022-08-20T01:37:34;19.93;;;16.87;;
8423;SDS011;4249;49.072;9.770;2022-08-20T01:40:24;21.80;;;16.43;;
8423;SDS011;4249;49.072;9.770;2022-08-20T01:43:27;17.90;;;16.00;;
8423;SDS011;4249;49.072;9.770;2022-08-20T01:46:15;17.98;;;16.08;;
8423;SDS011;4249;49.072;9.770;2022-08-20T01:49:06;18.77;;;15.87;;
8423;SDS011;4249;49.072;9.770;2022-08-20T01:51:57;19.23;;;16.70;;
8423;SDS011;4249;49.072;9.770;2022-08-20T01:54:46;20.70;;;17.70;;
8423;SDS011;4249;49.072;9.770;2022-08-20T01:57:33;19.50;;;16.70;;
8423;SDS011;4249;49.072;9.770;2022-08-20T02:00:23;19.67;;;16.30;;
8423;SDS011;4249;49.072;9.770;2022-08-20T02:03:10;20.07;;;16.77;;
8423;SDS011;4249;49.072;9.770;2022-08-20T02:05:58;17.83;;;15.93;;
8423;SDS011;4249;49.072;9.770;2022-08-20T02:08:46;19.30;;;16.03;;
8423;SDS011;4249;49.072;9.770;2022-08-20T02:11:33;18.53;;;16.63;;
8423;SDS011;4249;49.072;9.770;2022-08-20T02:14:21;18.03;;;14.53;;
8423;SDS011;4249;49.072;9.770;2022-08-20T02:17:10;18.03;;;15.93;;
8423;SDS011;4249;49.072;9.770;2022-08-20T02:19:59;17.77;;;15.50;;
8423;SDS011;4249;49.072;9.770;2022-08-20T02:22:49;20.40;;;16.33;;
8423;SDS011;4249;49.072;9.770;2022-08-20T02:25:39;18.03;;;15.03;;
8423;SDS011;4249;49.072;9.770;2022-08-20T02:28:29;18.87;;;16.13;;
8423;SDS011;4249;49.072;9.770;2022-08-20T02:31:16;17.60;;;15.33;;
8423;SDS011;4249;49.072;9.770;2022-08-20T02:34:07;18.63;;;15.13;;
8423;SDS011;4249;49.072;9.770;2022-08-20T02:36:54;19.02;;;13.82;;
8423;SDS011;4249;49.072;9.770;2022-08-20T02:39:42;18.03;;;13.63;;
8423;SDS011;4249;49.072;9.770;2022-08-20T02:42:29;14.97;;;13.30;;
8423;SDS011;4249;49.072;9.770;2022-08-20T02:45:16;14.37;;;12.87;;
8423;SDS011;4249;49.072;9.770;2022-08-20T02:48:04;15.70;;;12.83;;
8423;SDS011;4249;49.072;9.770;2022-08-20T02:50:53;14.20;;;12.03;;
8423;SDS011;4249;49.072;9.770;2022-08-20T02:53:42;13.80;;;11.17;;
8423;SDS011;4249;49.072;9.770;2022-08-20T02:56:29;13.33;;;10.43;;
8423;SDS011;4249;49.072;9.770;2022-08-20T02:59:17;11.17;;;10.00;;
8423;SDS011;4249;49.072;9.770;2022-08-20T03:02:04;12.60;;;10.03;;
8423;SDS011;4249;49.072;9.770;2022-08-20T03:04:52;11.97;;;9.67;;
8423;SDS011;4249;49.072;9.770;2022-08-20T03:07:41;10.57;;;8.93;;
8423;SDS011;4249;49.072;9.770;2022-08-20T03:10:30;9.33;;;8.37;;
8423;SDS011;4249;49.072;9.770;2022-08-20T03:13:19;9.00;;;7.90;;
8423;SDS011;4249;49.072;9.770;2022-08-20T03:16:07;10.15;;;9.00;;
8423;SDS011;4249;49.072;9.770;2022-08-20T03:18:55;13.47;;;8.57;;
8423;SDS011;4249;49.072;9.770;2022-08-20T03:21:42;10.73;;;8.30;;
8423;SDS011;4249;49.072;9.770;2022-08-20T03:24:31;9.47;;;8.13;;
8423;SDS011;4249;49.072;9.770;2022-08-20T03:27:18;10.03;;;7.77;;
8423;SDS011;4249;49.072;9.770;2022-08-20T03:30:05;11.00;;;7.60;;
8423;SDS011;4249;49.072;9.770;2022-08-20T03:32:54;9.93;;;7.37;;
8423;SDS011;4249;49.072;9.770;2022-08-20T03:35:42;8.60;;;7.23;;
8423;SDS011;4249;49.072;9.770;2022-08-20T03:38:29;9.43;;;7.57;;
8423;SDS011;4249;49.072;9.770;2022-08-20T03:41:18;8.57;;;7.33;;
8423;SDS011;4249;49.072;9.770;2022-08-20T03:44:05;9.57;;;7.37;;
8423;SDS011;4249;49.072;9.770;2022-08-20T03:46:54;9.90;;;7.50;;
8423;SDS011;4249;49.072;9.770;2022-08-20T03:49:42;7.60;;;6.57;;
8423;SDS011;4249;49.072;9.770;2022-08-20T03:52:29;10.37;;;7.30;;
8423;SDS011;4249;49.072;9.770;2022-08-20T03:55:16;7.90;;;6.83;;
8423;SDS011;4249;49.072;9.770;2022-08-20T03:58:06;9.47;;;6.90;;
8423;SDS011;4249;49.072;9.770;2022-08-20T04:00:55;7.50;;;6.63;;
8423;SDS011;4249;49.072;9.770;2022-08-20T04:03:42;7.73;;;6.90;;
8423;SDS011;4249;49.072;9.770;2022-08-20T04:06:29;9.07;;;6.30;;
8423;SDS011;4249;49.072;9.770;2022-08-20T04:09:16;7.07;;;6.00;;
8423;SDS011;4249;49.072;9.770;2022-08-20T04:12:04;7.77;;;6.07;;
8423;SDS011;4249;49.072;9.770;2022-08-20T04:14:53;6.27;;;5.67;;
8423;SDS011;4249;49.072;9.770;2022-08-20T04:17:41;11.03;;;6.07;;
8423;SDS011;4249;49.072;9.770;2022-08-20T04:20:30;7.57;;;5.53;;
8423;SDS011;4249;49.072;9.770;2022-08-20T04:23:18;7.53;;;5.27;;
8423;SDS011;4249;49.072;9.770;2022-08-20T04:26:05;9.57;;;6.03;;
8423;SDS011;4249;49.072;9.770;2022-08-20T04:28:52;8.43;;;6.13;;
8423;SDS011;4249;49.072;9.770;2022-08-20T04:31:42;6.27;;;5.50;;
8423;SDS011;4249;49.072;9.770;2022-08-20T04:34:29;7.50;;;6.57;;
8423;SDS011;4249;49.072;9.770;2022-08-20T04:37:18;8.00;;;5.97;;
8423;SDS011;4249;49.072;9.770;2022-08-20T04:40:07;6.13;;;5.50;;
8423;SDS011;4249;49.072;9.770;2022-08-20T04:43:14;7.67;;;5.23;;
8423;SDS011;4249;49.072;9.770;2022-08-20T04:46:02;7.13;;;5.18;;
8423;SDS011;4249;49.072;9.770;2022-08-20T04:48:55;7.43;;;5.47;;
8423;SDS011;4249;49.072;9.770;2022-08-20T04:51:43;6.83;;;5.00;;
8423;SDS011;4249;49.072;9.770;2022-08-20T04:54:30;5.47;;;4.83;;
8423;SDS011;4249;49.072;9.770;2022-08-20T04:57:17;5.43;;;4.75;;
8423;SDS011;4249;49.072;9.770;2022-08-20T05:00:06;9.15;;;5.43;;
8423;SDS011;4249;49.072;9.770;2022-08-20T05:02:55;5.38;;;4.70;;
8423;SDS011;4249;49.072;9.770;2022-08-20T05:05:44;6.13;;;4.93;;
8423;SDS011;4249;49.072;9.770;2022-08-20T05:08:32;5.60;;;4.90;;
8423;SDS011;4249;49.072;9.770;2022-08-20T05:11:22;5.15;;;4.50;;
8423;SDS011;4249;49.072;9.770;2022-08-20T05:14:09;6.60;;;4.73;;
8423;SDS011;4249;49.072;9.770;2022-08-20T05:17:00;6.27;;;4.20;;
8423;SDS011;4249;49.072;9.770;2022-08-20T05:19:50;5.25;;;4.50;;
8423;SDS011;4249;49.072;9.770;2022-08-20T05:22:39;5.53;;;4.57;;
8423;SDS011;4249;49.072;9.770;2022-08-20T05:25:27;5.33;;;4.33;;
8423;SDS011;4249;49.072;9.770;2022-08-20T05:28:17;5.05;;;3.97;;
8423;SDS011;4249;49.072;9.770;2022-08-20T05:31:05;4.53;;;4.13;;
8423;SDS011;4249;49.072;9.770;2022-08-20T05:33:53;6.22;;;4.05;;
8423;SDS011;4249;49.072;9.770;2022-08-20T05:36:43;5.45;;;4.55;;
8423;SDS011;4249;49.072;9.770;2022-08-20T05:39:33;5.82;;;4.53;;
8423;SDS011;4249;49.072;9.770;2022-08-20T05:42:20;4.15;;;3.70;;
8423;SDS011;4249;49.072;9.770;2022-08-20T05:45:09;5.03;;;3.97;;
8423;SDS011;4249;49.072;9.770;2022-08-20T05:47:56;3.90;;;3.58;;
8423;SDS011;4249;49.072;9.770;2022-08-20T05:50:44;4.22;;;3.58;;
8423;SDS011;4249;49.072;9.770;2022-08-20T05:53:33;4.88;;;3.22;;
8423;SDS011;4249;49.072;9.770;2022-08-20T05:56:23;4.55;;;3.40;;
8423;SDS011;4249;49.072;9.770;2022-08-20T05:59:10;5.05;;;3.38;;
8423;SDS011;4249;49.072;9.770;2022-08-20T06:01:58;3.80;;;3.50;;
8423;SDS011;4249;49.072;9.770;2022-08-20T06:04:45;2.80;;;2.60;;
8423;SDS011;4249;49.072;9.770;2022-08-20T06:07:31;3.63;;;2.95;;
8423;SDS011;4249;49.072;9.770;2022-08-20T06:10:18;5.70;;;3.33;;
8423;SDS011;4249;49.072;9.770;2022-08-20T06:13:07;4.10;;;3.05;;
8423;SDS011;4249;49.072;9.770;2022-08-20T06:15:54;4.38;;;3.20;;
8423;SDS011;4249;49.072;9.770;2022-08-20T06:18:41;3.15;;;2.80;;
8423;SDS011;4249;49.072;9.770;2022-08-20T06:21:29;3.58;;;3.08;;
8423;SDS011;4249;49.072;9.770;2022-08-20T06:24:16;3.58;;;3.20;;
8423;SDS011;4249;49.072;9.770;2022-08-20T06:27:03;5.75;;;3.38;;
8423;SDS011;4249;49.072;9.770;2022-08-20T06:29:53;5.07;;;3.20;;
8423;SDS011;4249;49.072;9.770;2022-08-20T06:32:40;4.13;;;3.72;;
8423;SDS011;4249;49.072;9.770;2022-08-20T06:35:27;6.30;;;3.83;;
8423;SDS011;4249;49.072;9.770;2022-08-20T06:38:15;3.70;;;3.40;;
8423;SDS011;4249;49.072;9.770;2022-08-20T06:41:02;3.40;;;2.85;;
8423;SDS011;4249;49.072;9.770;2022-08-20T06:43:49;4.90;;;3.30;;
8423;SDS011;4249;49.072;9.770;2022-08-20T06:46:39;3.55;;;3.25;;
8423;SDS011;4249;49.072;9.770;2022-08-20T06:49:28;4.03;;;3.25;;
8423;SDS011;4249;49.072;9.770;2022-08-20T06:52:15;5.07;;;3.42;;
8423;SDS011;4249;49.072;9.770;2022-08-20T06:55:03;3.75;;;3.25;;
8423;SDS011;4249;49.072;9.770;2022-08-20T06:57:55;3.75;;;3.38;;
8423;SDS011;4249;49.072;9.770;2022-08-20T07:00:43;3.60;;;3.15;;
8423;SDS011;4249;49.072;9.770;2022-08-20T07:03:33;3.60;;;3.25;;
8423;SDS011;4249;49.072;9.770;2022-08-20T07:06:22;4.28;;;3.45;;
8423;SDS011;4249;49.072;9.770;2022-08-20T07:09:11;8.18;;;3.65;;
8423;SDS011;4249;49.072;9.770;2022-08-20T07:11:58;3.40;;;3.08;;
8423;SDS011;4249;49.072;9.770;2022-08-20T07:14:45;5.30;;;3.50;;
8423;SDS011;4249;49.072;9.770;2022-08-20T07:17:32;5.82;;;3.30;;
8423;SDS011;4249;49.072;9.770;2022-08-20T07:20:21;4.43;;;3.35;;
8423;SDS011;4249;49.072;9.770;2022-08-20T07:23:09;4.07;;;3.30;;
8423;SDS011;4249;49.072;9.770;2022-08-20T07:25:57;3.03;;;2.72;;
8423;SDS011;4249;49.072;9.770;2022-08-20T07:28:44;3.28;;;2.92;;
8423;SDS011;4249;49.072;9.770;2022-08-20T07:31:32;3.40;;;2.70;;
8423;SDS011;4249;49.072;9.770;2022-08-20T07:34:37;3.50;;;3.17;;
8423;SDS011;4249;49.072;9.770;2022-08-20T07:37:25;3.08;;;2.88;;
8423;SDS011;4249;49.072;9.770;2022-08-20T07:40:13;3.88;;;3.30;;
8423;SDS011;4249;49.072;9.770;2022-08-20T07:43:03;3.90;;;3.42;;
8423;SDS011;4249;49.072;9.770;2022-08-20T07:45:50;5.03;;;3.85;;
8423;SDS011;4249;49.072;9.770;2022-08-20T07:48:41;4.32;;;3.30;;
8423;SDS011;4249;49.072;9.770;2022-08-20T07:51:30;3.83;;;3.53;;
8423;SDS011;4249;49.072;9.770;2022-08-20T07:54:19;4.88;;;3.85;;
8423;SDS011;4249;49.072;9.770;2022-08-20T07:57:06;6.15;;;3.55;;
8423;SDS011;4249;49.072;9.770;2022-08-20T07:59:56;6.95;;;4.07;;
8423;SDS011;4249;49.072;9.770;2022-08-20T08:02:44;3.90;;;3.60;;
8423;SDS011;4249;49.072;9.770;2022-08-20T08:05:32;3.72;;;3.40;;
8423;SDS011;4249;49.072;9.770;2022-08-20T08:08:23;3.45;;;3.15;;
8423;SDS011;4249;49.072;9.770;2022-08-20T08:11:14;5.03;;;2.95;;
8423;SDS011;4249;49.072;9.770;2022-08-20T08:14:03;4.78;;;3.47;;
8423;SDS011;4249;49.072;9.770;2022-08-20T08:16:54;3.92;;;3.55;;
8423;SDS011;4249;49.072;9.770;2022-08-20T08:19:46;3.22;;;2.92;;
8423;SDS011;4249;49.072;9.770;2022-08-20T08:22:35;3.75;;;3.15;;
8423;SDS011;4249;49.072;9.770;2022-08-20T08:25:25;3.80;;;3.40;;
8423;SDS011;4249;49.072;9.770;2022-08-20T08:28:14;3.55;;;3.25;;
8423;SDS011;4249;49.072;9.770;2022-08-20T08:31:02;4.60;;;2.95;;
8423;SDS011;4249;49.072;9.770;2022-08-20T08:33:49;3.50;;;2.70;;
8423;SDS011;4249;49.072;9.770;2022-08-20T08:36:37;3.35;;;3.05;;
8423;SDS011;4249;49.072;9.770;2022-08-20T08:39:28;3.22;;;2.92;;
8423;SDS011;4249;49.072;9.770;2022-08-20T08:42:19;3.88;;;3.15;;
8423;SDS011;4249;49.072;9.770;2022-08-20T08:45:13;4.35;;;3.45;;
8423;SDS011;4249;49.072;9.770;2022-08-20T08:48:03;3.72;;;3.42;;
8423;SDS011;4249;49.072;9.770;2022-08-20T08:50:50;4.25;;;3.60;;
8423;SDS011;4249;49.072;9.770;2022-08-20T08:53:43;3.78;;;3.33;;
8423;SDS011;4249;49.072;9.770;2022-08-20T08:56:33;3.60;;;3.30;;
8423;SDS011;4249;49.072;9.770;2022-08-20T08:59:21;3.60;;;3.30;;
8423;SDS011;4249;49.072;9.770;2022-08-20T09:02:11;3.58;;;3.28;;
8423;SDS011;4249;49.072;9.770;2022-08-20T09:05:10;3.22;;;2.92;;
8423;SDS011;4249;49.072;9.770;2022-08-20T09:08:01;3.88;;;3.08;;
8423;SDS011;4249;49.072;9.770;2022-08-20T09:10:52;3.50;;;3.20;;
8423;SDS011;4249;49.072;9.770;2022-08-20T09:13:40;3.78;;;3.03;;
8423;SDS011;4249;49.072;9.770;2022-08-20T09:16:28;5.03;;;3.78;;
8423;SDS011;4249;49.072;9.770;2022-08-20T09:19:16;4.53;;;4.00;;
8423;SDS011;4249;49.072;9.770;2022-08-20T09:22:07;5.05;;;4.15;;
8423;SDS011;4249;49.072;9.770;2022-08-20T09:24:55;4.25;;;3.75;;
8423;SDS011;4249;49.072;9.770;2022-08-20T09:27:43;4.88;;;3.67;;
8423;SDS011;4249;49.072;9.770;2022-08-20T09:30:31;3.58;;;3.28;;
8423;SDS011;4249;49.072;9.770;2022-08-20T09:33:18;4.40;;;3.38;;
8423;SDS011;4249;49.072;9.770;2022-08-20T09:36:07;5.60;;;3.67;;
8423;SDS011;4249;49.072;9.770;2022-08-20T09:38:54;3.60;;;3.30;;
8423;SDS011;4249;49.072;9.770;2022-08-20T09:41:42;5.53;;;3.10;;
8423;SDS011;4249;49.072;9.770;2022-08-20T09:44:29;4.82;;;3.20;;
8423;SDS011;4249;49.072;9.770;2022-08-20T09:47:16;4.88;;;3.60;;
8423;SDS011;4249;49.072;9.770;2022-08-20T09:50:04;4.47;;;2.83;;
8423;SDS011;4249;49.072;9.770;2022-08-20T09:52:54;5.35;;;3.67;;
8423;SDS011;4249;49.072;9.770;2022-08-20T09:55:44;3.35;;;2.88;;
8423;SDS011;4249;49.072;9.770;2022-08-20T09:58:36;3.55;;;3.15;;
8423;SDS011;4249;49.072;9.770;2022-08-20T10:01:28;4.18;;;3.47;;
8423;SDS011;4249;49.072;9.770;2022-08-20T10:04:17;3.72;;;3.42;;
8423;SDS011;4249;49.072;9.770;2022-08-20T10:07:05;6.90;;;3.80;;
8423;SDS011;4249;49.072;9.770;2022-08-20T10:09:54;3.20;;;3.00;;
8423;SDS011;4249;49.072;9.770;2022-08-20T10:12:42;4.20;;;3.80;;
8423;SDS011;4249;49.072;9.770;2022-08-20T10:15:31;5.70;;;3.92;;
8423;SDS011;4249;49.072;9.770;2022-08-20T10:18:18;16.33;;;5.20;;
8423;SDS011;4249;49.072;9.770;2022-08-20T10:21:07;15.73;;;5.97;;
8423;SDS011;4249;49.072;9.770;2022-08-20T10:23:55;9.25;;;3.85;;
8423;SDS011;4249;49.072;9.770;2022-08-20T10:26:44;7.70;;;3.88;;
8423;SDS011;4249;49.072;9.770;2022-08-20T10:29:11;4.50;;;3.67;;
8423;SDS011;4249;49.072;9.770;2022-08-20T10:31:39;7.45;;;3.67;;
8423;SDS011;4249;49.072;9.770;2022-08-20T10:34:07;8.38;;;4.28;;
8423;SDS011;4249;49.072;9.770;2022-08-20T10:36:34;8.50;;;3.60;;
8423;SDS011;4249;49.072;9.770;2022-08-20T10:39:00;7.18;;;3.90;;
8423;SDS011;4249;49.072;9.770;2022-08-20T10:41:27;3.67;;;3.35;;
8423;SDS011;4249;49.072;9.770;2022-08-20T10:43:56;5.00;;;3.42;;
8423;SDS011;4249;49.072;9.770;2022-08-20T10:46:22;3.92;;;3.53;;
8423;SDS011;4249;49.072;9.770;2022-08-20T10:48:50;4.38;;;4.03;;
8423;SDS011;4249;49.072;9.770;2022-08-20T10:51:17;4.72;;;3.58;;
8423;SDS011;4249;49.072;9.770;2022-08-20T10:53:44;3.85;;;3.30;;
8423;SDS011;4249;49.072;9.770;2022-08-20T10:56:11;4.30;;;3.85;;
8423;SDS011;4249;49.072;9.770;2022-08-20T10:58:38;3.60;;;3.25;;
8423;SDS011;4249;49.072;9.770;2022-08-20T11:01:06;5.03;;;4.63;;
8423;SDS011;4249;49.072;9.770;2022-08-20T11:03:33;5.85;;;5.25;;
8423;SDS011;4249;49.072;9.770;2022-08-20T11:06:01;9.45;;;7.68;;
8423;SDS011;4249;49.072;9.770;2022-08-20T11:08:28;8.63;;;7.13;;
8423;SDS011;4249;49.072;9.770;2022-08-20T11:10:55;7.60;;;6.85;;
8423;SDS011;4249;49.072;9.770;2022-08-20T11:13:22;6.63;;;6.13;;
8423;SDS011;4249;49.072;9.770;2022-08-20T11:15:49;7.63;;;6.70;;
8423;SDS011;4249;49.072;9.770;2022-08-20T11:18:17;8.32;;;6.75;;
8423;SDS011;4249;49.072;9.770;2022-08-20T11:20:44;7.68;;;5.93;;
8423;SDS011;4249;49.072;9.770;2022-08-20T11:23:11;7.40;;;6.75;;
8423;SDS011;4249;49.072;9.770;2022-08-20T11:25:56;7.00;;;6.40;;
8423;SDS011;4249;49.072;9.770;2022-08-20T11:28:45;7.28;;;6.63;;
8423;SDS011;4249;49.072;9.770;2022-08-20T11:31:32;5.88;;;5.38;;
8423;SDS011;4249;49.072;9.770;2022-08-20T11:34:20;9.48;;;7.40;;
8423;SDS011;4249;49.072;9.770;2022-08-20T11:37:08;9.05;;;5.85;;
8423;SDS011;4249;49.072;9.770;2022-08-20T11:39:55;7.15;;;6.28;;
8423;SDS011;4249;49.072;9.770;2022-08-20T11:42:42;8.15;;;5.47;;
8423;SDS011;4249;49.072;9.770;2022-08-20T11:45:31;10.80;;;6.78;;
8423;SDS011;4249;49.072;9.770;2022-08-20T11:48:19;13.20;;;7.65;;
8423;SDS011;4249;49.072;9.770;2022-08-20T11:51:07;7.43;;;6.70;;
8423;SDS011;4249;49.072;9.770;2022-08-20T11:53:55;8.63;;;7.30;;
8423;SDS011;4249;49.072;9.770;2022-08-20T11:56:43;9.43;;;7.63;;
8423;SDS011;4249;49.072;9.770;2022-08-20T11:59:30;8.75;;;7.95;;
8423;SDS011;4249;49.072;9.770;2022-08-20T12:02:17;2.55;;;2.22;;
8423;SDS011;4249;49.072;9.770;2022-08-20T12:05:05;2.83;;;2.15;;
8423;SDS011;4249;49.072;9.770;2022-08-20T12:07:55;5.25;;;2.20;;
8423;SDS011;4249;49.072;9.770;2022-08-20T12:10:42;4.50;;;2.00;;
8423;SDS011;4249;49.072;9.770;2022-08-20T12:13:30;2.60;;;1.83;;
8423;SDS011;4249;49.072;9.770;2022-08-20T12:16:18;2.10;;;1.90;;
8423;SDS011;4249;49.072;9.770;2022-08-20T12:19:06;1.90;;;1.80;;
8423;SDS011;4249;49.072;9.770;2022-08-20T12:21:53;2.75;;;2.15;;
8423;SDS011;4249;49.072;9.770;2022-08-20T12:24:41;2.10;;;1.90;;
8423;SDS011;4249;49.072;9.770;2022-08-20T12:27:30;3.15;;;2.10;;
8423;SDS011;4249;49.072;9.770;2022-08-20T12:30:19;5.13;;;2.35;;
8423;SDS011;4249;49.072;9.770;2022-08-20T12:33:08;2.85;;;2.30;;
8423;SDS011;4249;49.072;9.770;2022-08-20T12:35:55;3.38;;;2.80;;
8423;SDS011;4249;49.072;9.770;2022-08-20T12:38:44;3.80;;;2.95;;
8423;SDS011;4249;49.072;9.770;2022-08-20T12:41:32;4.90;;;3.60;;
8423;SDS011;4249;49.072;9.770;2022-08-20T12:44:19;5.30;;;2.95;;
8423;SDS011;4249;49.072;9.770;2022-08-20T12:47:08;4.88;;;3.05;;
8423;SDS011;4249;49.072;9.770;2022-08-20T12:49:57;7.20;;;3.40;;
8423;SDS011;4249;49.072;9.770;2022-08-20T12:52:46;4.90;;;3.60;;
8423;SDS011;4249;49.072;9.770;2022-08-20T12:55:34;4.68;;;4.15;;
8423;SDS011;4249;49.072;9.770;2022-08-20T12:58:23;6.32;;;4.53;;
8423;SDS011;4249;49.072;9.770;2022-08-20T13:01:10;5.00;;;4.07;;
8423;SDS011;4249;49.072;9.770;2022-08-20T13:03:57;3.58;;;3.28;;
8423;SDS011;4249;49.072;9.770;2022-08-20T13:06:45;5.80;;;4.03;;
8423;SDS011;4249;49.072;9.770;2022-08-20T13:09:32;3.42;;;3.13;;
8423;SDS011;4249;49.072;9.770;2022-08-20T13:12:20;3.88;;;3.45;;
8423;SDS011;4249;49.072;9.770;2022-08-20T13:15:09;2.35;;;2.15;;
8423;SDS011;4249;49.072;9.770;2022-08-20T13:17:58;2.40;;;2.28;;
8423;SDS011;4249;49.072;9.770;2022-08-20T13:20:46;5.18;;;2.38;;
8423;SDS011;4249;49.072;9.770;2022-08-20T13:23:34;4.45;;;2.53;;
8423;SDS011;4249;49.072;9.770;2022-08-20T13:26:21;2.92;;;2.70;;
8423;SDS011;4249;49.072;9.770;2022-08-20T13:29:09;6.28;;;2.72;;
8423;SDS011;4249;49.072;9.770;2022-08-20T13:31:57;3.33;;;2.28;;
8423;SDS011;4249;49.072;9.770;2022-08-20T13:34:45;2.58;;;2.38;;
8423;SDS011;4249;49.072;9.770;2022-08-20T13:37:32;3.42;;;2.72;;
8423;SDS011;4249;49.072;9.770;2022-08-20T13:40:20;2.78;;;2.42;;
8423;SDS011;4249;49.072;9.770;2022-08-20T13:43:07;3.75;;;2.67;;
8423;SDS011;4249;49.072;9.770;2022-08-20T13:45:54;3.22;;;2.78;;
8423;SDS011;4249;49.072;9.770;2022-08-20T13:48:43;3.10;;;2.47;;
8423;SDS011;4249;49.072;9.770;2022-08-20T13:51:31;3.80;;;2.85;;
8423;SDS011;4249;49.072;9.770;2022-08-20T13:54:18;3.72;;;3.03;;
8423;SDS011;4249;49.072;9.770;2022-08-20T13:57:07;3.60;;;2.40;;
8423;SDS011;4249;49.072;9.770;2022-08-20T13:59:55;2.97;;;2.40;;
8423;SDS011;4249;49.072;9.770;2022-08-20T14:02:43;2.92;;;2.20;;
8423;SDS011;4249;49.072;9.770;2022-08-20T14:05:32;3.60;;;2.35;;
8423;SDS011;4249;49.072;9.770;2022-08-20T14:08:20;2.63;;;2.42;;
8423;SDS011;4249;49.072;9.770;2022-08-20T14:11:09;2.72;;;2.53;;
8423;SDS011;4249;49.072;9.770;2022-08-20T14:13:56;3.92;;;2.70;;
8423;SDS011;4249;49.072;9.770;2022-08-20T14:16:43;2.70;;;2.50;;
8423;SDS011;4249;49.072;9.770;2022-08-20T14:19:30;4.78;;;3.15;;
8423;SDS011;4249;49.072;9.770;2022-08-20T14:22:19;7.05;;;2.90;;
8423;SDS011;4249;49.072;9.770;2022-08-20T14:25:07;2.60;;;2.40;;
8423;SDS011;4249;49.072;9.770;2022-08-20T14:27:57;2.42;;;2.22;;
8423;SDS011;4249;49.072;9.770;2022-08-20T14:30:45;2.78;;;2.25;;
8423;SDS011;4249;49.072;9.770;2022-08-20T14:33:33;2.50;;;2.25;;
8423;SDS011;4249;49.072;9.770;2022-08-20T14:36:20;2.53;;;2.33;;
8423;SDS011;4249;49.072;9.770;2022-08-20T14:39:09;3.03;;;2.15;;
8423;SDS011;4249;49.072;9.770;2022-08-20T14:41:56;4.10;;;2.42;;
8423;SDS011;4249;49.072;9.770;2022-08-20T14:44:43;3.40;;;2.40;;
8423;SDS011;4249;49.072;9.770;2022-08-20T14:47:32;2.47;;;2.28;;
8423;SDS011;4249;49.072;9.770;2022-08-20T14:50:21;2.60;;;2.40;;
8423;SDS011;4249;49.072;9.770;2022-08-20T14:53:10;3.95;;;3.58;;
8423;SDS011;4249;49.072;9.770;2022-08-20T14:55:59;5.32;;;3.83;;
8423;SDS011;4249;49.072;9.770;2022-08-20T14:58:47;3.40;;;3.10;;
8423;SDS011;4249;49.072;9.770;2022-08-20T15:01:35;4.47;;;3.03;;
8423;SDS011;4249;49.072;9.770;2022-08-20T15:04:22;3.88;;;3.38;;
8423;SDS011;4249;49.072;9.770;2022-08-20T15:07:13;4.78;;;3.42;;
8423;SDS011;4249;49.072;9.770;2022-08-20T15:10:07;10.90;;;4.25;;
8423;SDS011;4249;49.072;9.770;2022-08-20T15:12:58;4.55;;;4.15;;
8423;SDS011;4249;49.072;9.770;2022-08-20T15:15:47;5.55;;;4.20;;
8423;SDS011;4249;49.072;9.770;2022-08-20T15:18:34;4.43;;;4.03;;
8423;SDS011;4249;49.072;9.770;2022-08-20T15:21:21;5.20;;;4.68;;
8423;SDS011;4249;49.072;9.770;2022-08-20T15:24:08;5.05;;;4.53;;
8423;SDS011;4249;49.072;9.770;2022-08-20T15:26:55;5.93;;;4.35;;
8423;SDS011;4249;49.072;9.770;2022-08-20T15:29:44;4.55;;;4.15;;
8423;SDS011;4249;49.072;9.770;2022-08-20T15:32:31;5.78;;;5.05;;
8423;SDS011;4249;49.072;9.770;2022-08-20T15:35:18;5.93;;;5.32;;
8423;SDS011;4249;49.072;9.770;2022-08-20T15:38:06;7.07;;;4.65;;
8423;SDS011;4249;49.072;9.770;2022-08-20T15:40:53;4.65;;;4.10;;
8423;SDS011;4249;49.072;9.770;2022-08-20T15:43:40;5.50;;;4.00;;
8423;SDS011;4249;49.072;9.770;2022-08-20T15:46:29;4.38;;;3.92;;
8423;SDS011;4249;49.072;9.770;2022-08-20T15:49:16;4.18;;;3.65;;
8423;SDS011;4249;49.072;9.770;2022-08-20T15:52:04;4.75;;;3.55;;
8423;SDS011;4249;49.072;9.770;2022-08-20T15:54:51;3.80;;;3.50;;
8423;SDS011;4249;49.072;9.770;2022-08-20T15:57:42;6.57;;;4.40;;
8423;SDS011;4249;49.072;9.770;2022-08-20T16:00:37;4.45;;;4.05;;
8423;SDS011;4249;49.072;9.770;2022-08-20T16:03:37;3.38;;;3.15;;
8423;SDS011;4249;49.072;9.770;2022-08-20T16:06:53;3.25;;;3.03;;
8423;SDS011;4249;49.072;9.770;2022-08-20T16:09:49;4.03;;;3.55;;
8423;SDS011;4249;49.072;9.770;2022-08-20T16:12:46;4.43;;;3.30;;
8423;SDS011;4249;49.072;9.770;2022-08-20T16:15:35;3.80;;;3.03;;
8423;SDS011;4249;49.072;9.770;2022-08-20T16:18:27;2.85;;;2.65;;
8423;SDS011;4249;49.072;9.770;2022-08-20T16:21:20;3.33;;;3.03;;
8423;SDS011;4249;49.072;9.770;2022-08-20T16:24:14;3.15;;;2.85;;
8423;SDS011;4249;49.072;9.770;2022-08-20T16:27:06;4.38;;;3.50;;
8423;SDS011;4249;49.072;9.770;2022-08-20T16:30:01;3.33;;;3.03;;
8423;SDS011;4249;49.072;9.770;2022-08-20T16:32:53;4.40;;;2.88;;
8423;SDS011;4249;49.072;9.770;2022-08-20T16:35:49;3.97;;;3.58;;
8423;SDS011;4249;49.072;9.770;2022-08-20T16:38:42;5.50;;;3.53;;
8423;SDS011;4249;49.072;9.770;2022-08-20T16:41:37;5.78;;;3.88;;
8423;SDS011;4249;49.072;9.770;2022-08-20T16:44:27;3.28;;;2.97;;
8423;SDS011;4249;49.072;9.770;2022-08-20T16:47:18;3.85;;;2.95;;
8423;SDS011;4249;49.072;9.770;2022-08-20T16:50:09;5.95;;;3.20;;
8423;SDS011;4249;49.072;9.770;2022-08-20T16:53:01;12.52;;;3.60;;
8423;SDS011;4249;49.072;9.770;2022-08-20T16:55:49;7.75;;;3.83;;
8423;SDS011;4249;49.072;9.770;2022-08-20T16:58:36;9.68;;;3.97;;
8423;SDS011;4249;49.072;9.770;2022-08-20T17:01:24;9.40;;;3.60;;
8423;SDS011;4249;49.072;9.770;2022-08-20T17:04:18;4.18;;;3.60;;
8423;SDS011;4249;49.072;9.770;2022-08-20T17:07:06;3.95;;;3.55;;
8423;SDS011;4249;49.072;9.770;2022-08-20T17:09:56;6.80;;;4.03;;
8423;SDS011;4249;49.072;9.770;2022-08-20T17:12:57;3.33;;;3.03;;
8423;SDS011;4249;49.072;9.770;2022-08-20T17:15:51;4.03;;;3.13;;